Time;durP1;ratioP1;P1;durP2;ratioP2;P2;SDS_P1;SDS_P2;PMS_P1;PMS_P2;Temp;Humidity;BMP_temperature;BMP_pressure;BME280_temperature;BME280_humidity;BME280_pressure;Samples;Min_cycle;Max_cycle;Signal;HPM_P1;HPM_P2
2022/01/13 00:00:01;;;;;;;25.20;15.18;;;;;;;;;;10316174;28;20087;-56
2022/01/13 00:05:02;;;;;;;30.60;19.23;;;;;;;;;;10325797;28;20076;-53
2022/01/13 00:10:02;;;;;;;44.35;29.00;;;;;;;;;;10320079;28;20049;-56
2022/01/13 00:25:41;;;;;;;35.53;25.35;;;;;;;;;;10318293;28;20056;-55
2022/01/13 00:30:40;;;;;;;24.50;17.80;;;;;;;;;;10317334;28;20079;-56
2022/01/13 00:35:38;;;;;;;19.15;13.73;;;;;;;;;;10319246;28;20052;-55
2022/01/13 00:40:36;;;;;;;19.90;14.00;;;;;;;;;;10319201;28;20048;-56
2022/01/13 00:45:36;;;;;;;18.90;13.75;;;;;;;;;;10318066;28;20043;-54
2022/01/13 00:50:34;;;;;;;22.13;15.18;;;;;;;;;;10317607;28;20076;-51
2022/01/13 00:55:46;;;;;;;21.65;14.65;;;;;;;;;;10318407;28;20076;-55
2022/01/13 01:00:45;;;;;;;25.30;18.20;;;;;;;;;;10318272;28;20041;-56
2022/01/13 01:05:44;;;;;;;22.67;17.85;;;;;;;;;;10318256;28;20381;-54
2022/01/13 01:10:45;;;;;;;25.88;18.52;;;;;;;;;;10318030;28;20044;-55
2022/01/13 01:15:48;;;;;;;19.05;15.23;;;;;;;;;;10317836;28;20060;-53
2022/01/13 01:21:01;;;;;;;18.25;12.98;;;;;;;;;;10317559;28;20072;-52
2022/01/13 01:26:05;;;;;;;22.27;15.73;;;;;;;;;;10317678;28;20087;-55
2022/01/13 01:31:05;;;;;;;18.40;11.30;;;;;;;;;;10317421;28;20079;-55
2022/01/13 01:36:05;;;;;;;16.70;11.95;;;;;;;;;;10317257;28;20036;-52
2022/01/13 01:41:03;;;;;;;15.85;10.82;;;;;;;;;;10316831;28;20040;-53
2022/01/13 01:46:01;;;;;;;15.60;9.98;;;;;;;;;;10317147;28;20170;-54
2022/01/13 01:51:04;;;;;;;15.25;9.63;;;;;;;;;;10315950;28;20525;-53
2022/01/13 01:56:03;;;;;;;20.60;12.13;;;;;;;;;;10316945;28;20483;-53
2022/01/13 02:01:02;;;;;;;17.67;10.18;;;;;;;;;;10316759;28;20079;-54
2022/01/13 02:06:02;;;;;;;16.52;10.45;;;;;;;;;;10316793;28;20044;-53
2022/01/13 02:11:00;;;;;;;17.48;11.52;;;;;;;;;;10316832;28;20072;-53
2022/01/13 02:16:04;;;;;;;17.50;11.13;;;;;;;;;;10316523;28;20457;-57
2022/01/13 02:21:05;;;;;;;13.60;9.67;;;;;;;;;;10316658;28;20072;-51
2022/01/13 02:26:05;;;;;;;20.13;12.02;;;;;;;;;;10316550;28;20040;-55
2022/01/13 02:31:03;;;;;;;17.52;12.77;;;;;;;;;;10316332;28;20056;-50
2022/01/13 02:36:02;;;;;;;16.27;11.73;;;;;;;;;;10316065;28;20036;-53
2022/01/13 02:41:03;;;;;;;17.25;13.13;;;;;;;;;;10315958;28;20076;-56
2022/01/13 02:46:08;;;;;;;15.00;10.50;;;;;;;;;;10315970;28;20068;-57
2022/01/13 02:51:06;;;;;;;17.38;11.85;;;;;;;;;;10314975;28;20087;-53
2022/01/13 02:56:06;;;;;;;17.80;12.35;;;;;;;;;;10323018;28;20087;-55
2022/01/13 03:01:05;;;;;;;16.67;11.32;;;;;;;;;;10323254;28;20080;-55
2022/01/13 03:06:07;;;;;;;16.50;10.85;;;;;;;;;;10322912;28;20087;-55
2022/01/13 03:11:07;;;;;;;23.40;12.30;;;;;;;;;;10320491;28;20506;-50
2022/01/13 03:16:06;;;;;;;20.17;15.27;;;;;;;;;;10322552;28;20052;-51
2022/01/13 03:21:05;;;;;;;20.52;12.13;;;;;;;;;;10322442;28;20425;-52
2022/01/13 03:26:04;;;;;;;19.17;12.07;;;;;;;;;;10322093;28;20056;-53
2022/01/13 03:31:04;;;;;;;16.77;11.10;;;;;;;;;;10321831;28;20137;-52
2022/01/13 03:36:02;;;;;;;20.50;12.70;;;;;;;;;;10321855;28;20155;-52
2022/01/13 03:41:01;;;;;;;16.70;12.43;;;;;;;;;;10321578;28;20079;-53
2022/01/13 03:45:59;;;;;;;21.48;13.65;;;;;;;;;;10321527;28;20513;-55
2022/01/13 03:50:59;;;;;;;20.75;17.20;;;;;;;;;;10321346;28;20052;-56
2022/01/13 03:56:15;;;;;;;22.63;15.48;;;;;;;;;;10321483;28;20512;-53
2022/01/13 04:01:33;;;;;;;21.58;14.23;;;;;;;;;;10326168;28;20103;-55
2022/01/13 04:06:40;;;;;;;88.82;54.05;;;;;;;;;;10334541;28;20044;-50
2022/01/13 04:11:40;;;;;;;186.13;102.43;;;;;;;;;;10329348;28;20055;-54
2022/01/13 04:16:38;;;;;;;308.60;160.55;;;;;;;;;;10320326;28;20073;-52
2022/01/13 04:21:38;;;;;;;46.53;28.98;;;;;;;;;;10320036;28;20075;-52
2022/01/13 04:26:39;;;;;;;391.27;199.23;;;;;;;;;;10319889;28;20048;-54
2022/01/13 04:31:38;;;;;;;27.55;18.20;;;;;;;;;;10319795;28;20060;-54
2022/01/13 04:36:37;;;;;;;80.05;42.70;;;;;;;;;;10319455;28;20480;-53
2022/01/13 04:41:36;;;;;;;44.08;24.73;;;;;;;;;;10317303;28;20045;-55
2022/01/13 04:46:38;;;;;;;325.95;149.13;;;;;;;;;;10319147;28;20044;-55
2022/01/13 04:51:36;;;;;;;296.40;141.02;;;;;;;;;;10317743;28;20053;-54
2022/01/13 04:56:41;;;;;;;23.63;15.82;;;;;;;;;;10318444;28;20551;-54
2022/01/13 05:01:41;;;;;;;135.03;52.23;;;;;;;;;;10318359;28;20084;-53
2022/01/13 05:06:39;;;;;;;79.57;38.72;;;;;;;;;;10318330;28;20082;-55
2022/01/13 05:11:37;;;;;;;62.38;32.45;;;;;;;;;;10317982;28;20083;-54
2022/01/13 05:16:50;;;;;;;49.45;25.08;;;;;;;;;;10317285;28;20043;-55
2022/01/13 05:22:15;;;;;;;51.38;28.80;;;;;;;;;;10317700;28;20090;-56
2022/01/13 05:27:14;;;;;;;59.33;30.17;;;;;;;;;;10316640;28;20044;-53
2022/01/13 05:32:12;;;;;;;38.55;22.45;;;;;;;;;;10317195;28;20513;-55
2022/01/13 05:37:12;;;;;;;182.07;86.72;;;;;;;;;;10326909;28;20505;-54
2022/01/13 05:42:10;;;;;;;99.63;52.55;;;;;;;;;;10314238;28;20090;-53
2022/01/13 05:47:09;;;;;;;89.38;50.53;;;;;;;;;;10342124;28;20079;-54
2022/01/13 05:52:08;;;;;;;192.60;103.05;;;;;;;;;;10356314;28;20072;-55
2022/01/13 05:57:08;;;;;;;127.75;69.70;;;;;;;;;;10334850;28;20067;-54
2022/01/13 06:02:06;;;;;;;57.08;32.03;;;;;;;;;;10331107;28;20118;-53
2022/01/13 06:07:04;;;;;;;102.82;56.47;;;;;;;;;;10314704;28;20091;-55
2022/01/13 06:12:03;;;;;;;86.88;52.22;;;;;;;;;;10317511;28;20067;-54
2022/01/13 06:17:03;;;;;;;60.03;34.47;;;;;;;;;;10333880;28;20063;-52
2022/01/13 06:22:02;;;;;;;85.97;50.65;;;;;;;;;;10344069;28;20079;-53
2022/01/13 06:27:00;;;;;;;53.97;32.72;;;;;;;;;;10339485;28;20036;-56
2022/01/13 06:31:59;;;;;;;38.25;24.17;;;;;;;;;;10342894;28;20040;-56
2022/01/13 06:36:58;;;;;;;32.00;23.13;;;;;;;;;;10338701;28;20063;-56
2022/01/13 06:41:57;;;;;;;33.55;20.92;;;;;;;;;;10329919;28;20072;-56
2022/01/13 06:46:55;;;;;;;35.55;25.60;;;;;;;;;;10323705;28;20096;-55
2022/01/13 06:51:53;;;;;;;42.40;27.80;;;;;;;;;;10322446;28;20083;-56
2022/01/13 06:56:53;;;;;;;43.90;33.10;;;;;;;;;;10323511;28;20110;-56
2022/01/13 07:01:51;;;;;;;52.72;35.30;;;;;;;;;;10325524;28;20152;-53
2022/01/13 07:06:50;;;;;;;35.45;22.92;;;;;;;;;;10351349;28;20117;-56
2022/01/13 07:11:49;;;;;;;55.75;35.53;;;;;;;;;;10331252;28;20158;-54
2022/01/13 07:16:48;;;;;;;45.88;29.92;;;;;;;;;;10334609;28;20070;-57
2022/01/13 07:21:47;;;;;;;53.60;34.13;;;;;;;;;;10330745;28;20080;-56
2022/01/13 07:26:45;;;;;;;65.50;39.17;;;;;;;;;;10353025;28;20087;-56
2022/01/13 07:31:46;;;;;;;45.10;29.02;;;;;;;;;;10360656;28;20076;-54
2022/01/13 07:36:46;;;;;;;56.42;33.97;;;;;;;;;;10361681;28;20048;-54
2022/01/13 07:41:45;;;;;;;53.08;34.33;;;;;;;;;;10359272;28;20109;-55
2022/01/13 07:46:46;;;;;;;37.63;25.88;;;;;;;;;;10356540;28;20094;-55
2022/01/13 07:51:46;;;;;;;47.40;28.27;;;;;;;;;;10357394;28;20080;-55
2022/01/13 07:56:44;;;;;;;30.20;20.45;;;;;;;;;;10360571;28;20074;-53
2022/01/13 08:01:42;;;;;;;41.58;26.88;;;;;;;;;;10362146;28;20513;-53
2022/01/13 08:06:41;;;;;;;51.85;31.92;;;;;;;;;;10361654;28;20457;-52
2022/01/13 08:11:41;;;;;;;31.58;21.00;;;;;;;;;;10361068;28;20078;-51
2022/01/13 08:16:41;;;;;;;36.38;25.45;;;;;;;;;;10361454;28;20040;-54
2022/01/13 08:21:40;;;;;;;29.70;20.75;;;;;;;;;;10361423;28;20087;-56
2022/01/13 08:26:38;;;;;;;46.00;27.85;;;;;;;;;;10360943;28;20072;-52
2022/01/13 08:31:38;;;;;;;50.65;28.70;;;;;;;;;;10361036;28;20055;-57
2022/01/13 08:36:36;;;;;;;37.05;26.08;;;;;;;;;;10360660;28;20036;-55
2022/01/13 08:41:34;;;;;;;41.78;26.48;;;;;;;;;;10357874;28;20425;-53
2022/01/13 08:46:32;;;;;;;67.20;38.03;;;;;;;;;;10360178;28;20052;-54
2022/01/13 08:51:32;;;;;;;42.83;28.00;;;;;;;;;;10357922;28;20055;-56
2022/01/13 08:56:31;;;;;;;53.00;31.13;;;;;;;;;;10358027;28;20051;-57
2022/01/13 09:01:29;;;;;;;39.17;23.58;;;;;;;;;;10359657;28;20087;-56
2022/01/13 09:06:28;;;;;;;39.72;24.95;;;;;;;;;;10358471;28;20055;-53
2022/01/13 09:11:28;;;;;;;38.58;23.92;;;;;;;;;;10358770;28;20040;-57
2022/01/13 09:16:29;;;;;;;47.90;30.00;;;;;;;;;;10359173;28;20079;-52
2022/01/13 09:21:28;;;;;;;47.88;29.15;;;;;;;;;;10357801;28;20087;-51
2022/01/13 09:26:28;;;;;;;40.42;24.92;;;;;;;;;;10357003;28;20075;-55
2022/01/13 09:31:27;;;;;;;35.88;22.88;;;;;;;;;;10358475;28;20477;-54
2022/01/13 09:36:25;;;;;;;31.85;21.60;;;;;;;;;;10357613;28;20044;-55
2022/01/13 09:41:24;;;;;;;133.40;62.22;;;;;;;;;;10357290;28;20481;-53
2022/01/13 09:46:26;;;;;;;75.70;45.33;;;;;;;;;;10357915;28;20071;-56
2022/01/13 09:51:25;;;;;;;45.70;28.80;;;;;;;;;;10356810;28;20448;-55
2022/01/13 09:56:23;;;;;;;53.70;31.70;;;;;;;;;;10357773;28;20040;-56
2022/01/13 10:01:22;;;;;;;45.60;29.00;;;;;;;;;;10357422;28;20446;-52
2022/01/13 10:06:22;;;;;;;52.15;31.98;;;;;;;;;;10357665;28;20040;-55
2022/01/13 10:11:23;;;;;;;33.22;22.90;;;;;;;;;;10356636;28;20075;-55
2022/01/13 10:16:25;;;;;;;36.25;21.73;;;;;;;;;;10357918;28;20543;-54
2022/01/13 10:21:24;;;;;;;37.65;23.23;;;;;;;;;;10357215;28;20102;-55
2022/01/13 10:26:23;;;;;;;52.90;30.80;;;;;;;;;;10356745;28;20079;-55
2022/01/13 10:31:21;;;;;;;45.00;27.48;;;;;;;;;;10357287;28;20493;-55
2022/01/13 10:36:19;;;;;;;48.03;28.88;;;;;;;;;;10357138;28;20055;-55
2022/01/13 10:41:37;;;;;;;43.58;28.15;;;;;;;;;;10356050;28;20102;-58
2022/01/13 10:46:59;;;;;;;35.35;22.90;;;;;;;;;;10356919;28;20055;-56
2022/01/13 10:52:12;;;;;;;41.17;24.85;;;;;;;;;;10353890;28;20544;-55
2022/01/13 10:57:21;;;;;;;38.17;22.60;;;;;;;;;;10356904;28;20095;-52
2022/01/13 11:02:20;;;;;;;52.65;32.05;;;;;;;;;;10355487;28;20083;-55
2022/01/13 11:07:20;;;;;;;50.08;31.40;;;;;;;;;;10355595;28;20076;-57
2022/01/13 11:12:27;;;;;;;45.63;28.63;;;;;;;;;;10355678;28;20049;-55
2022/01/13 11:17:25;;;;;;;35.55;24.83;;;;;;;;;;10362873;28;20079;-55
2022/01/13 11:22:24;;;;;;;33.60;22.65;;;;;;;;;;10362582;28;20079;-57
2022/01/13 11:27:23;;;;;;;45.55;28.98;;;;;;;;;;10362551;28;20075;-54
2022/01/13 11:32:22;;;;;;;36.88;24.58;;;;;;;;;;10362162;28;20051;-55
2022/01/13 11:37:21;;;;;;;40.58;24.25;;;;;;;;;;10362650;28;20055;-56
2022/01/13 11:42:19;;;;;;;36.08;22.55;;;;;;;;;;10361795;28;20087;-54
2022/01/13 11:47:22;;;;;;;48.42;28.58;;;;;;;;;;10361511;28;20044;-57
2022/01/13 11:52:30;;;;;;;47.47;26.65;;;;;;;;;;10361990;28;20052;-53
2022/01/13 11:57:29;;;;;;;36.20;24.63;;;;;;;;;;10361428;28;20043;-56
2022/01/13 12:02:29;;;;;;;40.40;26.02;;;;;;;;;;10361171;28;20078;-54
2022/01/13 12:07:37;;;;;;;43.47;25.77;;;;;;;;;;10361121;28;20044;-55
2022/01/13 12:12:37;;;;;;;52.67;33.00;;;;;;;;;;10360886;28;20079;-56
2022/01/13 12:17:45;;;;;;;30.50;20.92;;;;;;;;;;10360824;28;20059;-56
2022/01/13 12:22:51;;;;;;;45.42;27.27;;;;;;;;;;10360318;28;20157;-54
2022/01/13 12:27:51;;;;;;;64.68;39.10;;;;;;;;;;10360056;28;20080;-57
2022/01/13 12:32:51;;;;;;;53.50;34.72;;;;;;;;;;10360287;28;20051;-56
2022/01/13 12:37:58;;;;;;;48.20;30.40;;;;;;;;;;10359666;28;20051;-55
2022/01/13 12:43:03;;;;;;;64.38;40.53;;;;;;;;;;10359553;28;20429;-54
2022/01/13 12:48:05;;;;;;;75.37;47.33;;;;;;;;;;10359039;28;20040;-55
2022/01/13 12:53:12;;;;;;;56.88;34.92;;;;;;;;;;10360043;28;20301;-56
2022/01/13 12:58:10;;;;;;;55.40;34.97;;;;;;;;;;10359581;28;20083;-55
2022/01/13 13:03:29;;;;;;;45.70;27.25;;;;;;;;;;10359442;28;20421;-52
2022/01/13 13:08:29;;;;;;;44.38;26.77;;;;;;;;;;10358690;28;20170;-54
2022/01/13 13:13:28;;;;;;;37.20;21.80;;;;;;;;;;10358958;28;20067;-52
2022/01/13 13:18:28;;;;;;;46.17;27.77;;;;;;;;;;10359002;28;20416;-54
2022/01/13 13:23:29;;;;;;;43.42;26.10;;;;;;;;;;10358087;28;20490;-54
2022/01/13 13:28:33;;;;;;;24.55;17.13;;;;;;;;;;10358161;28;20048;-55
2022/01/13 13:33:33;;;;;;;45.97;28.58;;;;;;;;;;10358211;28;20305;-55
2022/01/13 13:38:32;;;;;;;39.75;26.88;;;;;;;;;;10355749;28;20504;-56
2022/01/13 13:43:36;;;;;;;31.88;22.20;;;;;;;;;;10357768;28;20082;-56
2022/01/13 13:48:34;;;;;;;31.58;20.08;;;;;;;;;;10356647;28;20090;-56
2022/01/13 13:54:02;;;;;;;26.48;18.10;;;;;;;;;;10357371;28;20083;-57
2022/01/13 13:59:02;;;;;;;42.92;22.42;;;;;;;;;;10357718;28;20040;-52
2022/01/13 14:04:00;;;;;;;29.30;18.92;;;;;;;;;;10357143;28;20071;-54
2022/01/13 14:08:59;;;;;;;26.60;17.38;;;;;;;;;;10357162;28;20075;-52
2022/01/13 14:14:10;;;;;;;28.88;17.92;;;;;;;;;;10357165;28;20040;-56
2022/01/13 14:19:10;;;;;;;30.42;18.65;;;;;;;;;;10357548;28;20040;-56
2022/01/13 14:24:08;;;;;;;31.25;18.20;;;;;;;;;;10356666;28;20072;-55
2022/01/13 14:29:07;;;;;;;26.80;17.90;;;;;;;;;;10356629;28;20071;-53
2022/01/13 14:34:06;;;;;;;41.08;24.85;;;;;;;;;;10357003;28;20044;-54
2022/01/13 14:39:06;;;;;;;42.22;26.10;;;;;;;;;;10356495;28;20425;-52
2022/01/13 14:44:05;;;;;;;29.25;19.42;;;;;;;;;;10356275;28;20174;-53
2022/01/13 14:49:05;;;;;;;42.33;27.88;;;;;;;;;;10358895;28;20052;-55
2022/01/13 14:54:05;;;;;;;25.83;17.63;;;;;;;;;;10364630;28;20052;-57
2022/01/13 14:59:03;;;;;;;49.22;29.67;;;;;;;;;;10363985;28;20040;-55
2022/01/13 15:04:01;;;;;;;75.15;43.42;;;;;;;;;;10364028;28;20465;-56
2022/01/13 15:09:00;;;;;;;61.05;32.25;;;;;;;;;;10363773;28;20647;-57
2022/01/13 15:13:59;;;;;;;63.22;37.35;;;;;;;;;;10363424;28;20037;-56
2022/01/13 15:19:01;;;;;;;61.70;38.08;;;;;;;;;;10363547;28;20048;-53
2022/01/13 15:24:01;;;;;;;65.88;36.75;;;;;;;;;;10363230;28;20158;-56
2022/01/13 15:29:00;;;;;;;45.80;27.25;;;;;;;;;;10363097;28;20447;-56
2022/01/13 15:34:00;;;;;;;32.03;21.38;;;;;;;;;;10362959;28;20052;-55
2022/01/13 15:39:00;;;;;;;62.08;34.55;;;;;;;;;;10362985;28;20068;-56
2022/01/13 15:43:58;;;;;;;57.75;31.52;;;;;;;;;;10362404;28;20510;-57
2022/01/13 15:48:58;;;;;;;65.85;36.88;;;;;;;;;;10361609;28;20087;-54
2022/01/13 15:53:57;;;;;;;90.20;45.78;;;;;;;;;;10362319;28;20624;-53
2022/01/13 15:58:55;;;;;;;45.97;28.55;;;;;;;;;;10361567;28;20048;-55
2022/01/13 16:03:53;;;;;;;46.63;26.98;;;;;;;;;;10361264;28;20079;-56
2022/01/13 16:08:55;;;;;;;48.58;26.55;;;;;;;;;;10361751;28;20043;-55
2022/01/13 16:13:56;;;;;;;57.40;29.02;;;;;;;;;;10361245;28;20504;-53
2022/01/13 16:18:55;;;;;;;53.67;29.50;;;;;;;;;;10361199;28;20599;-54
2022/01/13 16:23:54;;;;;;;54.00;27.15;;;;;;;;;;10360953;28;20071;-54
2022/01/13 16:28:54;;;;;;;52.05;30.98;;;;;;;;;;10360295;28;20040;-53
2022/01/13 16:33:52;;;;;;;43.75;24.75;;;;;;;;;;10360272;28;20044;-56
2022/01/13 16:38:51;;;;;;;90.20;45.30;;;;;;;;;;10359992;28;20044;-56
2022/01/13 16:43:51;;;;;;;40.47;24.05;;;;;;;;;;10359520;28;20083;-55
2022/01/13 16:48:49;;;;;;;38.70;26.77;;;;;;;;;;10359153;28;20052;-54
2022/01/13 16:53:47;;;;;;;41.25;23.00;;;;;;;;;;10359690;28;20048;-55
2022/01/13 16:58:46;;;;;;;36.63;22.35;;;;;;;;;;10359471;28;20040;-55
2022/01/13 17:03:45;;;;;;;33.20;20.10;;;;;;;;;;10358771;28;20075;-51
2022/01/13 17:08:43;;;;;;;47.35;26.83;;;;;;;;;;10358767;28;20064;-52
2022/01/13 17:13:42;;;;;;;52.17;27.85;;;;;;;;;;10357923;28;20539;-56
2022/01/13 17:18:40;;;;;;;47.45;27.33;;;;;;;;;;10358790;28;20090;-55
2022/01/13 17:23:40;;;;;;;57.80;30.55;;;;;;;;;;10358563;28;20075;-55
2022/01/13 17:28:39;;;;;;;35.00;23.25;;;;;;;;;;10358170;28;20040;-50
2022/01/13 17:33:37;;;;;;;42.15;26.27;;;;;;;;;;10358320;28;20082;-55
2022/01/13 17:38:36;;;;;;;36.80;23.30;;;;;;;;;;10357934;28;20391;-56
2022/01/13 17:43:35;;;;;;;39.22;25.95;;;;;;;;;;10357452;28;20468;-53
2022/01/13 17:48:34;;;;;;;35.80;22.30;;;;;;;;;;10357131;28;20087;-53
2022/01/13 17:53:33;;;;;;;40.65;22.90;;;;;;;;;;10335389;28;20060;-55
2022/01/13 17:58:31;;;;;;;51.53;26.92;;;;;;;;;;10331704;28;20475;-56
2022/01/13 18:03:31;;;;;;;75.30;39.63;;;;;;;;;;10322969;28;20478;-56
2022/01/13 18:08:29;;;;;;;34.67;22.45;;;;;;;;;;10323368;28;20075;-56
2022/01/13 18:13:30;;;;;;;43.05;27.98;;;;;;;;;;10316891;28;20502;-55
2022/01/13 18:18:28;;;;;;;41.42;26.05;;;;;;;;;;10342725;28;20076;-54
2022/01/13 18:23:28;;;;;;;62.97;34.70;;;;;;;;;;10317968;28;20048;-55
2022/01/13 18:28:26;;;;;;;64.00;37.42;;;;;;;;;;10324197;28;20052;-56
2022/01/13 18:33:25;;;;;;;38.25;26.17;;;;;;;;;;10323652;28;20068;-55
2022/01/13 18:38:23;;;;;;;70.28;39.97;;;;;;;;;;10325167;28;20047;-53
2022/01/13 18:43:26;;;;;;;36.90;25.45;;;;;;;;;;10346459;28;20498;-52
2022/01/13 18:48:25;;;;;;;39.92;24.70;;;;;;;;;;10332094;28;20061;-53
2022/01/13 18:53:23;;;;;;;34.97;22.85;;;;;;;;;;10337460;28;20053;-53
2022/01/13 18:58:21;;;;;;;36.42;22.30;;;;;;;;;;10324441;28;20060;-54
2022/01/13 19:03:21;;;;;;;44.72;26.42;;;;;;;;;;10336025;28;20451;-54
2022/01/13 19:08:20;;;;;;;48.03;29.25;;;;;;;;;;10321496;28;20052;-53
2022/01/13 19:13:18;;;;;;;49.67;28.40;;;;;;;;;;10327330;28;20036;-55
2022/01/13 19:18:20;;;;;;;49.25;28.85;;;;;;;;;;10332752;28;20064;-52
2022/01/13 19:23:19;;;;;;;37.38;23.75;;;;;;;;;;10335527;28;20583;-54
2022/01/13 19:28:18;;;;;;;45.83;25.13;;;;;;;;;;10339238;28;20040;-54
2022/01/13 19:33:17;;;;;;;45.90;26.67;;;;;;;;;;10340316;28;20060;-53
2022/01/13 19:38:17;;;;;;;45.65;22.95;;;;;;;;;;10328555;28;20071;-56
2022/01/13 19:43:17;;;;;;;36.30;23.35;;;;;;;;;;10340941;28;20072;-55
2022/01/13 19:48:15;;;;;;;35.53;21.20;;;;;;;;;;10336824;28;20087;-55
2022/01/13 19:53:14;;;;;;;31.88;18.55;;;;;;;;;;10326629;28;20063;-55
2022/01/13 19:58:12;;;;;;;53.55;29.67;;;;;;;;;;10335804;28;20091;-54
2022/01/13 20:03:12;;;;;;;42.88;26.05;;;;;;;;;;10341185;28;20072;-54
2022/01/13 20:08:11;;;;;;;39.83;25.55;;;;;;;;;;10334095;28;20060;-55
2022/01/13 20:13:09;;;;;;;43.67;26.77;;;;;;;;;;10331699;28;20071;-52
2022/01/13 20:18:08;;;;;;;52.28;31.10;;;;;;;;;;10344019;28;20047;-53
2022/01/13 20:23:07;;;;;;;47.17;29.77;;;;;;;;;;10335205;28;20048;-53
2022/01/13 20:28:06;;;;;;;45.08;25.42;;;;;;;;;;10359894;28;20040;-52
2022/01/13 20:33:04;;;;;;;60.55;32.90;;;;;;;;;;10359779;28;20051;-53
2022/01/13 20:38:03;;;;;;;54.60;30.90;;;;;;;;;;10355729;28;20090;-54
2022/01/13 20:43:04;;;;;;;49.80;27.60;;;;;;;;;;10351219;28;20055;-55
2022/01/13 20:48:03;;;;;;;48.03;26.48;;;;;;;;;;10336890;28;20084;-56
2022/01/13 20:53:01;;;;;;;41.50;27.60;;;;;;;;;;10317680;28;20074;-55
2022/01/13 20:57:59;;;;;;;51.38;30.23;;;;;;;;;;10318637;28;20052;-53
2022/01/13 21:02:59;;;;;;;50.67;28.58;;;;;;;;;;10320439;28;20106;-54
2022/01/13 21:07:58;;;;;;;42.47;26.88;;;;;;;;;;10337360;28;20509;-55
2022/01/13 21:12:56;;;;;;;49.53;29.77;;;;;;;;;;10353835;28;20075;-53
2022/01/13 21:17:54;;;;;;;48.45;28.67;;;;;;;;;;10332998;28;20072;-54
2022/01/13 21:22:55;;;;;;;46.65;29.08;;;;;;;;;;10324593;28;20111;-55
2022/01/13 21:27:54;;;;;;;48.13;28.23;;;;;;;;;;10321771;28;20561;-55
2022/01/13 21:32:55;;;;;;;49.20;28.48;;;;;;;;;;10337252;28;20074;-56
2022/01/13 21:37:56;;;;;;;43.33;25.63;;;;;;;;;;10321230;28;20048;-51
2022/01/13 21:42:58;;;;;;;40.30;24.85;;;;;;;;;;10315042;28;20138;-56
2022/01/13 21:48:04;;;;;;;45.53;27.67;;;;;;;;;;10317734;28;20091;-55
2022/01/13 21:53:03;;;;;;;46.15;27.67;;;;;;;;;;10331651;28;20075;-56
2022/01/13 21:58:01;;;;;;;43.30;26.80;;;;;;;;;;10331196;28;20060;-56
2022/01/13 22:03:02;;;;;;;45.83;26.58;;;;;;;;;;10335564;28;20474;-54
2022/01/13 22:08:01;;;;;;;49.22;28.20;;;;;;;;;;10355102;28;20082;-54
2022/01/13 22:13:01;;;;;;;43.45;27.63;;;;;;;;;;10357174;28;20051;-53
2022/01/13 22:17:59;;;;;;;44.10;27.08;;;;;;;;;;10356901;28;20044;-53
2022/01/13 22:22:58;;;;;;;41.83;24.67;;;;;;;;;;10357079;28;20425;-54
2022/01/13 22:27:57;;;;;;;51.50;28.48;;;;;;;;;;10356767;28;20067;-55
2022/01/13 22:33:00;;;;;;;48.00;26.33;;;;;;;;;;10357008;28;20072;-56
2022/01/13 22:37:58;;;;;;;37.90;23.50;;;;;;;;;;10356532;28;20489;-55
2022/01/13 22:42:57;;;;;;;40.88;26.95;;;;;;;;;;10356529;28;20063;-53
2022/01/13 22:47:55;;;;;;;35.72;23.15;;;;;;;;;;10355764;28;20083;-54
2022/01/13 22:52:55;;;;;;;37.00;23.23;;;;;;;;;;10356058;28;20079;-55
2022/01/13 22:57:54;;;;;;;37.67;23.85;;;;;;;;;;10356053;28;20063;-55
2022/01/13 23:02:52;;;;;;;38.33;22.70;;;;;;;;;;10355889;28;20044;-55
2022/01/13 23:07:51;;;;;;;36.10;22.13;;;;;;;;;;10355523;28;20083;-55
2022/01/13 23:12:50;;;;;;;32.83;21.27;;;;;;;;;;10362532;28;20048;-54
2022/01/13 23:23:05;;;;;;;40.67;22.50;;;;;;;;;;10363339;28;20048;-56
2022/01/13 23:28:05;;;;;;;35.97;24.05;;;;;;;;;;10362565;28;20074;-52
2022/01/13 23:33:04;;;;;;;38.45;22.38;;;;;;;;;;10362708;28;20040;-55
2022/01/13 23:38:02;;;;;;;40.58;23.73;;;;;;;;;;10362472;28;20588;-55
2022/01/13 23:43:00;;;;;;;34.75;22.05;;;;;;;;;;10361997;28;20076;-55
2022/01/13 23:48:00;;;;;;;38.83;22.45;;;;;;;;;;10361411;28;20091;-53
2022/01/13 23:52:58;;;;;;;38.47;21.70;;;;;;;;;;10361690;28;20106;-53
2022/01/13 23:57:56;;;;;;;34.53;20.85;;;;;;;;;;10361564;28;20075;-53
